Time;durP1;ratioP1;P1;durP2;ratioP2;P2;SDS_P1;SDS_P2;PMS_P1;PMS_P2;Temp;Humidity;BMP_temperature;BMP_pressure;BME280_temperature;BME280_humidity;BME280_pressure;Samples;Min_cycle;Max_cycle;Signal;HPM_P1;HPM_P2
2021/12/20 00:01:47;;;;;;;15.90;10.60;;;;;;;;;;4894775;29;20135;-91
2021/12/20 00:04:13;;;;;;;16.15;10.80;;;;;;;;;;4886265;29;20036;-90
2021/12/20 00:06:39;;;;;;;13.43;9.23;;;;;;;;;;4901835;29;20068;-88
2021/12/20 00:09:05;;;;;;;17.48;11.07;;;;;;;;;;4901777;29;20032;-87
2021/12/20 00:11:31;;;;;;;14.40;10.00;;;;;;;;;;4901244;29;20104;-87
2021/12/20 00:13:57;;;;;;;15.88;10.05;;;;;;;;;;4901673;29;20336;-88
2021/12/20 00:16:24;;;;;;;13.98;9.27;;;;;;;;;;4885535;29;20041;-88
2021/12/20 00:18:51;;;;;;;11.73;8.75;;;;;;;;;;4885218;29;20040;-88
2021/12/20 00:21:17;;;;;;;13.48;9.63;;;;;;;;;;4901555;29;20301;-88
2021/12/20 00:26:47;;;;;;;13.63;8.75;;;;;;;;;;4960284;29;20077;-88
2021/12/20 00:29:13;;;;;;;14.18;9.75;;;;;;;;;;4959875;29;20106;-88
2021/12/20 00:31:40;;;;;;;13.57;9.13;;;;;;;;;;4971724;28;20027;-88
2021/12/20 00:34:06;;;;;;;17.50;9.55;;;;;;;;;;4962204;28;20035;-88
2021/12/20 00:36:32;;;;;;;11.93;8.80;;;;;;;;;;4979413;28;20027;-89
2021/12/20 00:41:42;;;;;;;13.00;8.43;;;;;;;;;;4979367;28;20428;-89
2021/12/20 00:44:08;;;;;;;12.35;8.43;;;;;;;;;;4979083;28;20328;-90
2021/12/20 00:46:34;;;;;;;11.88;8.60;;;;;;;;;;4961759;28;20039;-90
2021/12/20 00:49:01;;;;;;;11.00;7.97;;;;;;;;;;4979496;28;20038;-90
2021/12/20 00:51:27;;;;;;;11.88;8.00;;;;;;;;;;4961731;28;20045;-89
2021/12/20 00:54:30;;;;;;;11.90;8.02;;;;;;;;;;4978895;28;20034;-88
2021/12/20 00:56:56;;;;;;;12.43;7.85;;;;;;;;;;4978983;28;20026;-89
2021/12/20 00:59:22;;;;;;;11.02;7.65;;;;;;;;;;4961870;28;20113;-88
2021/12/20 01:01:48;;;;;;;12.05;7.78;;;;;;;;;;4991549;28;20019;-89
2021/12/20 01:04:14;;;;;;;10.73;7.30;;;;;;;;;;4980798;28;20085;-90
2021/12/20 01:06:40;;;;;;;11.38;7.85;;;;;;;;;;4980600;28;20034;-89
2021/12/20 01:15:15;;;;;;;10.50;7.50;;;;;;;;;;4998152;28;20440;-89
2021/12/20 01:17:41;;;;;;;11.77;7.30;;;;;;;;;;4998427;28;20027;-91
2021/12/20 01:20:08;;;;;;;10.98;7.55;;;;;;;;;;4998420;28;20038;-91
2021/12/20 01:22:34;;;;;;;12.75;7.50;;;;;;;;;;4998018;28;20057;-89
2021/12/20 01:25:00;;;;;;;9.55;6.82;;;;;;;;;;4998059;28;20030;-90
2021/12/20 01:27:26;;;;;;;10.38;7.10;;;;;;;;;;4998014;28;20431;-91
2021/12/20 01:29:52;;;;;;;11.20;7.57;;;;;;;;;;4980190;28;20057;-91
2021/12/20 01:32:19;;;;;;;8.13;6.00;;;;;;;;;;4994888;28;20026;-89
2021/12/20 01:34:45;;;;;;;9.77;6.13;;;;;;;;;;4982908;28;20026;-90
2021/12/20 01:37:13;;;;;;;9.75;6.32;;;;;;;;;;4982871;28;20026;-90
2021/12/20 01:39:59;;;;;;;8.88;6.03;;;;;;;;;;4965464;28;20050;-88
2021/12/20 01:42:25;;;;;;;11.02;6.32;;;;;;;;;;4982376;28;20418;-90
2021/12/20 01:44:56;;;;;;;9.30;6.68;;;;;;;;;;4982491;28;20115;-91
2021/12/20 01:47:23;;;;;;;9.63;6.40;;;;;;;;;;4982389;28;20030;-90
2021/12/20 01:50:00;;;;;;;10.80;6.40;;;;;;;;;;4965265;28;20345;-90
2021/12/20 01:52:28;;;;;;;9.77;6.45;;;;;;;;;;4982379;28;20035;-88
2021/12/20 01:54:55;;;;;;;12.05;6.90;;;;;;;;;;4982366;28;20314;-90
2021/12/20 01:57:22;;;;;;;10.18;6.47;;;;;;;;;;4982195;28;20023;-90
2021/12/20 01:59:48;;;;;;;9.70;6.75;;;;;;;;;;4982106;28;20027;-90
2021/12/20 02:02:15;;;;;;;8.18;5.80;;;;;;;;;;4987289;28;20018;-90
2021/12/20 02:04:48;;;;;;;9.32;5.90;;;;;;;;;;4984409;28;20030;-90
2021/12/20 02:07:33;;;;;;;9.75;6.60;;;;;;;;;;5001589;28;20109;-90
2021/12/20 02:13:03;;;;;;;8.05;5.75;;;;;;;;;;5001467;28;20329;-89
2021/12/20 02:15:29;;;;;;;6.43;5.20;;;;;;;;;;5000926;28;20026;-89
2021/12/20 02:17:55;;;;;;;7.00;5.25;;;;;;;;;;4984241;28;20030;-89
2021/12/20 02:20:26;;;;;;;7.25;5.13;;;;;;;;;;5001606;28;20057;-89
2021/12/20 02:22:56;;;;;;;7.85;4.88;;;;;;;;;;4984121;28;20094;-88
2021/12/20 02:29:03;;;;;;;8.07;5.20;;;;;;;;;;4987672;28;20053;-87
2021/12/20 02:37:26;;;;;;;6.28;4.43;;;;;;;;;;4962355;29;20358;-90
2021/12/20 02:39:46;;;;;;;5.55;4.25;;;;;;;;;;4961741;29;20086;-91
2021/12/20 02:42:17;;;;;;;7.32;4.82;;;;;;;;;;4961550;28;20042;-90
2021/12/20 02:44:48;;;;;;;5.30;4.30;;;;;;;;;;4960258;28;20368;-90
2021/12/20 02:47:26;;;;;;;6.47;4.47;;;;;;;;;;4922934;29;20063;-89
2021/12/20 02:49:52;;;;;;;8.05;5.28;;;;;;;;;;4923033;29;20036;-90
2021/12/20 02:52:21;;;;;;;6.75;4.85;;;;;;;;;;4923852;29;20039;-89
2021/12/20 02:57:50;;;;;;;6.35;4.32;;;;;;;;;;4923773;29;20082;-90
2021/12/20 03:00:16;;;;;;;6.47;4.68;;;;;;;;;;4922588;29;20024;-90
2021/12/20 03:02:46;;;;;;;5.88;4.43;;;;;;;;;;4922443;29;20068;-90
2021/12/20 03:05:12;;;;;;;5.38;3.63;;;;;;;;;;4923409;29;20017;-91
2021/12/20 03:07:46;;;;;;;6.07;4.10;;;;;;;;;;4923365;29;20031;-90
2021/12/20 03:13:15;;;;;;;;;;;;;;;;;;4924147;29;20046;-91
2021/12/20 03:15:42;;;;;;;5.20;3.50;;;;;;;;;;4930919;29;19907;-89
2021/12/20 03:18:08;;;;;;;5.60;3.60;;;;;;;;;;4940895;29;20147;-91
2021/12/20 03:20:34;;;;;;;5.07;3.58;;;;;;;;;;4942285;29;20023;-89
2021/12/20 03:23:00;;;;;;;5.07;3.65;;;;;;;;;;4942462;29;20028;-91
2021/12/20 03:25:27;;;;;;;5.40;3.40;;;;;;;;;;4941211;29;20122;-90
2021/12/20 03:27:57;;;;;;;5.38;3.55;;;;;;;;;;4942065;29;20441;-91
2021/12/20 03:30:25;;;;;;;5.35;3.78;;;;;;;;;;4953737;28;20098;-92
2021/12/20 03:32:51;;;;;;;5.45;3.67;;;;;;;;;;4961462;29;20440;-90
2021/12/20 03:35:17;;;;;;;5.82;4.07;;;;;;;;;;4960229;29;20082;-90
2021/12/20 03:37:43;;;;;;;7.15;4.60;;;;;;;;;;4961204;29;20322;-91
2021/12/20 03:40:10;;;;;;;4.68;3.70;;;;;;;;;;4961347;29;20027;-91
2021/12/20 03:42:39;;;;;;;6.32;4.05;;;;;;;;;;4960090;29;20031;-91
2021/12/20 03:45:06;;;;;;;5.57;4.03;;;;;;;;;;4961144;29;20031;-91
2021/12/20 03:47:32;;;;;;;4.97;4.03;;;;;;;;;;4960862;29;20040;-91
2021/12/20 03:49:58;;;;;;;5.43;4.47;;;;;;;;;;4961188;29;20028;-89
2021/12/20 03:52:24;;;;;;;5.38;4.22;;;;;;;;;;4959756;28;20034;-89
2021/12/20 03:54:50;;;;;;;5.57;4.82;;;;;;;;;;4959927;29;20119;-89
2021/12/20 03:57:16;;;;;;;24.20;16.10;;;;;;;;;;4959200;28;20044;-89
2021/12/20 03:59:46;;;;;;;31.67;20.45;;;;;;;;;;4960614;29;20410;-89
2021/12/20 04:02:16;;;;;;;42.55;27.65;;;;;;;;;;4960609;28;20418;-89
2021/12/20 04:04:42;;;;;;;40.72;29.10;;;;;;;;;;4960829;28;20031;-90
2021/12/20 04:07:08;;;;;;;28.80;21.30;;;;;;;;;;4959608;29;20041;-90
2021/12/20 04:09:53;;;;;;;24.40;15.90;;;;;;;;;;4960399;29;20031;-91
2021/12/20 04:12:19;;;;;;;16.05;9.75;;;;;;;;;;4960472;29;20031;-90
2021/12/20 04:14:45;;;;;;;9.05;5.90;;;;;;;;;;4959262;29;20067;-87
2021/12/20 04:17:11;;;;;;;11.10;6.72;;;;;;;;;;4960471;29;20035;-87
2021/12/20 04:19:37;;;;;;;5.60;4.22;;;;;;;;;;4960348;29;20038;-88
2021/12/20 04:22:03;;;;;;;5.45;4.43;;;;;;;;;;4960259;29;20038;-88
2021/12/20 04:24:29;;;;;;;9.60;5.88;;;;;;;;;;4960080;29;20023;-87
2021/12/20 04:26:55;;;;;;;8.18;5.30;;;;;;;;;;4959216;29;20042;-87
2021/12/20 04:29:21;;;;;;;8.30;5.85;;;;;;;;;;4958603;29;20039;-87
2021/12/20 04:31:48;;;;;;;7.90;5.57;;;;;;;;;;4960225;29;20115;-87
2021/12/20 04:34:14;;;;;;;9.73;6.35;;;;;;;;;;4960428;28;20124;-87
2021/12/20 04:36:40;;;;;;;6.80;5.10;;;;;;;;;;4960262;29;20023;-87
2021/12/20 04:39:09;;;;;;;7.18;5.05;;;;;;;;;;4959060;29;20027;-87
2021/12/20 04:44:39;;;;;;;9.15;5.90;;;;;;;;;;4959903;29;20078;-89
2021/12/20 04:47:05;;;;;;;12.95;7.80;;;;;;;;;;4959850;29;20027;-89
2021/12/20 04:49:31;;;;;;;6.38;5.10;;;;;;;;;;4959774;29;20083;-89
2021/12/20 04:51:57;;;;;;;8.25;5.60;;;;;;;;;;4958942;29;20354;-89
2021/12/20 04:54:26;;;;;;;8.05;5.30;;;;;;;;;;4960023;28;20054;-90
2021/12/20 04:56:52;;;;;;;9.18;5.20;;;;;;;;;;4960035;29;20034;-88
2021/12/20 04:59:18;;;;;;;6.47;4.50;;;;;;;;;;4960107;29;20118;-89
2021/12/20 05:01:44;;;;;;;9.77;4.80;;;;;;;;;;4958840;29;20024;-89
2021/12/20 05:04:10;;;;;;;8.35;4.15;;;;;;;;;;4958546;28;20082;-90
2021/12/20 05:06:36;;;;;;;6.40;4.60;;;;;;;;;;4958742;29;20063;-89
2021/12/20 05:09:04;;;;;;;9.05;5.55;;;;;;;;;;4958344;29;20126;-89
2021/12/20 05:14:34;;;;;;;7.43;4.70;;;;;;;;;;4959480;29;20058;-89
2021/12/20 05:17:00;;;;;;;8.55;5.63;;;;;;;;;;4958646;29;20422;-89
2021/12/20 05:19:26;;;;;;;8.88;5.10;;;;;;;;;;4959590;29;20426;-89
2021/12/20 05:21:52;;;;;;;9.73;6.28;;;;;;;;;;4959529;29;20028;-89
2021/12/20 05:24:18;;;;;;;9.18;6.18;;;;;;;;;;4959612;29;20034;-86
2021/12/20 05:26:44;;;;;;;7.18;5.28;;;;;;;;;;4959768;29;20055;-88
2021/12/20 05:29:10;;;;;;;10.35;6.40;;;;;;;;;;4962562;28;20046;-89
2021/12/20 05:31:36;;;;;;;11.77;7.47;;;;;;;;;;4978729;28;20035;-89
2021/12/20 05:34:02;;;;;;;13.90;7.38;;;;;;;;;;4961156;28;20049;-89
2021/12/20 05:36:28;;;;;;;20.63;10.05;;;;;;;;;;4978934;28;20106;-89
2021/12/20 05:38:54;;;;;;;21.70;9.45;;;;;;;;;;4978524;28;20023;-89
2021/12/20 05:44:24;;;;;;;33.85;16.67;;;;;;;;;;4978528;28;20102;-87
2021/12/20 05:46:52;;;;;;;16.10;9.05;;;;;;;;;;4978863;28;20039;-88
2021/12/20 05:49:18;;;;;;;9.40;5.72;;;;;;;;;;4978699;28;20026;-87
2021/12/20 05:51:44;;;;;;;7.43;5.43;;;;;;;;;;4961490;28;20125;-87
2021/12/20 05:54:10;;;;;;;6.40;4.82;;;;;;;;;;4961039;28;20090;-88
2021/12/20 05:56:37;;;;;;;5.50;4.43;;;;;;;;;;4978417;28;20401;-88
2021/12/20 05:59:03;;;;;;;5.03;4.15;;;;;;;;;;4978113;28;20402;-87
2021/12/20 06:01:29;;;;;;;8.50;5.35;;;;;;;;;;4978287;28;20027;-88
2021/12/20 06:03:55;;;;;;;82.35;39.17;;;;;;;;;;4978735;28;20106;-88
2021/12/20 06:06:21;;;;;;;24.95;14.15;;;;;;;;;;4960969;28;20038;-88
2021/12/20 06:08:47;;;;;;;12.45;7.57;;;;;;;;;;4978417;28;20069;-88
2021/12/20 06:11:31;;;;;;;10.68;7.28;;;;;;;;;;4978500;28;20317;-86
2021/12/20 06:13:58;;;;;;;8.70;6.10;;;;;;;;;;4978162;28;20073;-88
2021/12/20 06:16:24;;;;;;;9.95;6.25;;;;;;;;;;4978825;28;20027;-89
2021/12/20 06:18:51;;;;;;;7.72;6.20;;;;;;;;;;4981646;28;20035;-88
2021/12/20 06:21:18;;;;;;;4.28;3.28;;;;;;;;;;4981888;28;20023;-88
2021/12/20 06:23:45;;;;;;;6.78;3.72;;;;;;;;;;4964593;28;20113;-89
2021/12/20 06:26:11;;;;;;;4.45;3.33;;;;;;;;;;4981774;28;20102;-89
2021/12/20 06:28:37;;;;;;;5.63;3.03;;;;;;;;;;4964676;28;20026;-89
2021/12/20 06:31:03;;;;;;;4.93;3.08;;;;;;;;;;4981172;28;20054;-90
2021/12/20 06:33:29;;;;;;;4.03;2.80;;;;;;;;;;4981314;28;20397;-90
2021/12/20 06:35:55;;;;;;;4.40;2.90;;;;;;;;;;4981273;28;20027;-89
2021/12/20 06:38:22;;;;;;;7.47;3.90;;;;;;;;;;4981710;28;20045;-89
2021/12/20 06:40:49;;;;;;;4.70;3.25;;;;;;;;;;4981303;28;20029;-90
2021/12/20 06:43:16;;;;;;;6.90;4.43;;;;;;;;;;4964341;28;20025;-90
2021/12/20 06:45:42;;;;;;;5.50;4.70;;;;;;;;;;4981386;28;20077;-89
2021/12/20 06:48:08;;;;;;;7.03;4.60;;;;;;;;;;4964185;28;20058;-88
2021/12/20 06:50:34;;;;;;;6.95;5.57;;;;;;;;;;4981119;28;20394;-87
2021/12/20 06:53:00;;;;;;;18.88;11.77;;;;;;;;;;4963975;28;20109;-88
2021/12/20 06:55:27;;;;;;;11.10;7.07;;;;;;;;;;4981114;28;20057;-88
2021/12/20 06:57:53;;;;;;;10.07;6.95;;;;;;;;;;4964104;28;20034;-88
2021/12/20 07:00:19;;;;;;;8.98;6.28;;;;;;;;;;4980932;28;20033;-88
2021/12/20 07:02:45;;;;;;;10.30;6.45;;;;;;;;;;4980873;28;20321;-88
2021/12/20 07:05:11;;;;;;;8.50;4.53;;;;;;;;;;4963546;28;20053;-88
2021/12/20 07:07:37;;;;;;;5.38;3.40;;;;;;;;;;4981221;28;20064;-88
2021/12/20 07:10:05;;;;;;;11.43;7.47;;;;;;;;;;4980827;28;20029;-88
2021/12/20 07:12:35;;;;;;;12.85;8.98;;;;;;;;;;4980975;28;20078;-90
2021/12/20 07:15:03;;;;;;;14.38;10.25;;;;;;;;;;4963840;28;20074;-89
2021/12/20 07:17:30;;;;;;;16.67;9.48;;;;;;;;;;4963593;28;20055;-89
2021/12/20 07:19:57;;;;;;;8.55;4.22;;;;;;;;;;4980421;28;20027;-89
2021/12/20 07:22:24;;;;;;;11.15;5.38;;;;;;;;;;4963995;28;20027;-89
2021/12/20 07:24:50;;;;;;;10.63;6.45;;;;;;;;;;4963474;28;20030;-88
2021/12/20 07:27:18;;;;;;;8.65;4.88;;;;;;;;;;4980505;28;20336;-89
2021/12/20 07:29:44;;;;;;;8.57;4.10;;;;;;;;;;4980299;28;20062;-88
2021/12/20 07:32:11;;;;;;;10.15;4.95;;;;;;;;;;4963383;28;20030;-88
2021/12/20 07:34:37;;;;;;;6.72;3.95;;;;;;;;;;4980367;28;20109;-88
2021/12/20 07:37:04;;;;;;;13.35;5.47;;;;;;;;;;4980521;28;20023;-88
2021/12/20 07:39:30;;;;;;;6.28;3.60;;;;;;;;;;4959097;28;20113;-89
2021/12/20 07:42:15;;;;;;;8.20;4.10;;;;;;;;;;4963237;28;20476;-89
2021/12/20 07:44:41;;;;;;;9.90;5.00;;;;;;;;;;4962955;28;20039;-89
2021/12/20 07:47:07;;;;;;;10.40;5.13;;;;;;;;;;4980630;28;20193;-88
2021/12/20 07:49:34;;;;;;;9.38;4.75;;;;;;;;;;4963330;28;20040;-88
2021/12/20 07:52:00;;;;;;;8.98;4.82;;;;;;;;;;4970652;28;20027;-89
2021/12/20 07:54:27;;;;;;;5.20;2.38;;;;;;;;;;4943847;29;20477;-89
2021/12/20 07:56:53;;;;;;;5.90;3.22;;;;;;;;;;4944681;28;20027;-89
2021/12/20 07:59:19;;;;;;;4.75;2.30;;;;;;;;;;4980321;28;20130;-89
2021/12/20 08:01:45;;;;;;;6.93;3.90;;;;;;;;;;4952522;28;20183;-89
2021/12/20 08:04:11;;;;;;;4.88;2.90;;;;;;;;;;4970526;28;20074;-90
2021/12/20 08:06:37;;;;;;;5.70;2.78;;;;;;;;;;4979916;28;20361;-89
2021/12/20 08:09:04;;;;;;;3.92;2.88;;;;;;;;;;4966375;28;20035;-89
2021/12/20 08:11:30;;;;;;;4.28;2.25;;;;;;;;;;4943776;29;20031;-89
2021/12/20 08:13:56;;;;;;;3.20;2.25;;;;;;;;;;4959806;28;20041;-88
2021/12/20 08:16:22;;;;;;;6.55;3.60;;;;;;;;;;4960311;29;20024;-88
2021/12/20 08:18:48;;;;;;;5.97;2.58;;;;;;;;;;4960595;29;20032;-88
2021/12/20 08:21:15;;;;;;;3.72;2.38;;;;;;;;;;4976391;28;20406;-86
2021/12/20 08:23:41;;;;;;;7.45;3.28;;;;;;;;;;4979290;28;20353;-87
2021/12/20 08:26:08;;;;;;;5.13;3.30;;;;;;;;;;4979166;28;20031;-87
2021/12/20 08:28:36;;;;;;;11.30;5.55;;;;;;;;;;4979225;28;20071;-87
2021/12/20 08:31:03;;;;;;;8.57;3.60;;;;;;;;;;4979072;28;20046;-86
2021/12/20 08:33:29;;;;;;;11.77;6.47;;;;;;;;;;4979348;28;20044;-86
2021/12/20 08:35:55;;;;;;;9.23;4.18;;;;;;;;;;4978973;28;20062;-87
2021/12/20 08:38:21;;;;;;;10.77;4.43;;;;;;;;;;4979142;28;20030;-86
2021/12/20 08:40:48;;;;;;;6.78;2.85;;;;;;;;;;4961241;28;20062;-87
2021/12/20 08:43:15;;;;;;;10.57;4.97;;;;;;;;;;4979151;28;20109;-87
2021/12/20 08:45:41;;;;;;;4.35;2.75;;;;;;;;;;4979233;28;20062;-87
2021/12/20 08:48:07;;;;;;;7.25;2.55;;;;;;;;;;4979352;28;20039;-86
2021/12/20 08:50:33;;;;;;;6.43;2.50;;;;;;;;;;4961711;28;20337;-87
2021/12/20 08:53:00;;;;;;;8.02;3.67;;;;;;;;;;4978905;28;20415;-87
2021/12/20 08:55:26;;;;;;;9.98;3.72;;;;;;;;;;4979009;28;20106;-87
2021/12/20 08:57:52;;;;;;;17.23;6.13;;;;;;;;;;4961913;28;20074;-87
2021/12/20 09:00:20;;;;;;;10.60;4.07;;;;;;;;;;4978781;28;20090;-87
2021/12/20 09:02:47;;;;;;;11.23;6.68;;;;;;;;;;4961858;28;20023;-86
2021/12/20 09:05:13;;;;;;;6.10;3.20;;;;;;;;;;4978814;28;20436;-87
2021/12/20 09:07:41;;;;;;;19.95;6.50;;;;;;;;;;4961723;28;20420;-87
2021/12/20 09:10:07;;;;;;;41.05;13.63;;;;;;;;;;4961683;28;20023;-86
2021/12/20 09:12:33;;;;;;;45.40;12.20;;;;;;;;;;4978845;28;20027;-87
2021/12/20 09:14:59;;;;;;;14.70;6.45;;;;;;;;;;4978727;28;20053;-86
2021/12/20 09:17:25;;;;;;;43.90;11.07;;;;;;;;;;4979226;28;20058;-87
2021/12/20 09:19:53;;;;;;;44.55;11.23;;;;;;;;;;4978805;28;20031;-87
2021/12/20 09:22:19;;;;;;;35.60;13.90;;;;;;;;;;4961349;28;20038;-87
2021/12/20 09:24:45;;;;;;;14.68;6.88;;;;;;;;;;4978606;28;20085;-87
2021/12/20 09:27:12;;;;;;;9.85;4.70;;;;;;;;;;4978534;28;20406;-87
2021/12/20 09:29:39;;;;;;;8.20;3.35;;;;;;;;;;4978378;28;20057;-87
2021/12/20 09:32:05;;;;;;;6.40;2.50;;;;;;;;;;4978570;28;20139;-87
2021/12/20 09:34:32;;;;;;;4.68;2.30;;;;;;;;;;4978076;28;20088;-87
2021/12/20 09:37:03;;;;;;;5.43;2.50;;;;;;;;;;4978646;28;20023;-87
2021/12/20 09:39:29;;;;;;;6.30;3.53;;;;;;;;;;4978683;28;20070;-86
2021/12/20 09:42:02;;;;;;;7.10;2.75;;;;;;;;;;4978435;28;20428;-86
2021/12/20 09:44:29;;;;;;;4.97;2.60;;;;;;;;;;4961474;28;20027;-86
2021/12/20 09:46:56;;;;;;;5.22;2.97;;;;;;;;;;4961349;28;20042;-86
2021/12/20 09:49:23;;;;;;;6.22;2.83;;;;;;;;;;4978523;28;20035;-87
2021/12/20 09:51:50;;;;;;;6.43;3.33;;;;;;;;;;4979603;28;20034;-87
2021/12/20 09:54:16;;;;;;;7.07;3.90;;;;;;;;;;4965161;28;20030;-87
2021/12/20 09:56:43;;;;;;;5.43;2.65;;;;;;;;;;4982353;28;20023;-86
2021/12/20 09:59:12;;;;;;;5.43;2.90;;;;;;;;;;4982105;28;20030;-87
2021/12/20 10:01:39;;;;;;;12.90;5.90;;;;;;;;;;4982124;28;20050;-86
2021/12/20 10:04:05;;;;;;;8.30;4.20;;;;;;;;;;4982055;28;20030;-86
2021/12/20 10:06:33;;;;;;;21.73;11.57;;;;;;;;;;4982171;28;20069;-86
2021/12/20 10:09:09;;;;;;;24.95;12.32;;;;;;;;;;4982173;28;20031;-86
2021/12/20 10:11:37;;;;;;;31.92;15.07;;;;;;;;;;4981951;28;20146;-86
2021/12/20 10:14:05;;;;;;;37.42;18.77;;;;;;;;;;4981711;28;20142;-87
2021/12/20 10:16:31;;;;;;;24.35;12.38;;;;;;;;;;4982054;28;20030;-87
2021/12/20 10:18:59;;;;;;;16.77;10.07;;;;;;;;;;4964787;28;20417;-87
2021/12/20 10:21:36;;;;;;;13.57;6.90;;;;;;;;;;4982041;28;20353;-86
2021/12/20 10:24:03;;;;;;;10.73;5.60;;;;;;;;;;4964332;28;20039;-87
2021/12/20 10:26:29;;;;;;;11.48;6.10;;;;;;;;;;4964651;28;20043;-86
2021/12/20 10:28:55;;;;;;;8.68;3.50;;;;;;;;;;4981581;28;20029;-86
2021/12/20 10:31:22;;;;;;;4.72;3.03;;;;;;;;;;4981738;28;20027;-86
2021/12/20 10:33:53;;;;;;;4.50;2.30;;;;;;;;;;4981365;28;20070;-87
2021/12/20 10:36:19;;;;;;;5.13;2.30;;;;;;;;;;4981590;28;20320;-86
2021/12/20 10:38:46;;;;;;;5.30;2.58;;;;;;;;;;4981558;28;20019;-86
2021/12/20 10:41:12;;;;;;;5.13;2.60;;;;;;;;;;4981401;28;20029;-87
2021/12/20 10:43:41;;;;;;;8.80;4.25;;;;;;;;;;4981286;28;20026;-87
2021/12/20 10:46:15;;;;;;;6.93;2.42;;;;;;;;;;4981382;28;20077;-87
2021/12/20 10:48:41;;;;;;;6.60;3.95;;;;;;;;;;4981039;28;20030;-86
2021/12/20 10:51:16;;;;;;;8.88;3.70;;;;;;;;;;4963894;28;20039;-86
2021/12/20 10:53:45;;;;;;;5.75;3.13;;;;;;;;;;4981340;28;20428;-87
2021/12/20 10:56:11;;;;;;;4.03;2.20;;;;;;;;;;4981561;28;20102;-86
2021/12/20 10:58:38;;;;;;;4.10;2.40;;;;;;;;;;4981280;28;20027;-86
2021/12/20 11:04:15;;;;;;;5.75;2.55;;;;;;;;;;4980926;28;20073;-86
2021/12/20 11:07:02;;;;;;;4.65;2.30;;;;;;;;;;4964080;28;20410;-86
2021/12/20 11:09:31;;;;;;;5.03;2.65;;;;;;;;;;4981043;28;20035;-86
2021/12/20 11:11:58;;;;;;;4.85;2.50;;;;;;;;;;4963234;28;20035;-86
2021/12/20 11:14:34;;;;;;;3.72;2.20;;;;;;;;;;4980777;28;20077;-86
2021/12/20 11:17:01;;;;;;;5.65;2.63;;;;;;;;;;4980785;28;20027;-86
2021/12/20 11:19:32;;;;;;;6.50;2.40;;;;;;;;;;4963256;28;20129;-87
2021/12/20 11:22:00;;;;;;;6.15;2.95;;;;;;;;;;4980140;28;20086;-86
2021/12/20 11:24:31;;;;;;;6.40;3.03;;;;;;;;;;4980826;28;20022;-86
2021/12/20 11:26:58;;;;;;;5.63;2.10;;;;;;;;;;4980706;28;20138;-87
2021/12/20 11:29:24;;;;;;;9.82;4.38;;;;;;;;;;4980492;28;20090;-86
2021/12/20 11:31:51;;;;;;;28.08;14.20;;;;;;;;;;4980552;28;20034;-87
2021/12/20 11:34:17;;;;;;;8.93;3.85;;;;;;;;;;4980416;28;20085;-86
2021/12/20 11:36:43;;;;;;;5.78;3.60;;;;;;;;;;4980531;28;20023;-86
2021/12/20 11:39:10;;;;;;;7.65;3.35;;;;;;;;;;4980399;28;20022;-86
2021/12/20 11:41:36;;;;;;;7.20;3.40;;;;;;;;;;4980426;28;20046;-86
2021/12/20 11:44:03;;;;;;;3.95;2.50;;;;;;;;;;4980072;28;20417;-87
2021/12/20 11:46:38;;;;;;;3.67;1.90;;;;;;;;;;4962838;28;20409;-86
2021/12/20 11:49:05;;;;;;;5.03;1.83;;;;;;;;;;4980491;28;20034;-86
2021/12/20 11:51:51;;;;;;;4.63;2.10;;;;;;;;;;4963251;28;20026;-86
2021/12/20 11:54:37;;;;;;;4.07;2.67;;;;;;;;;;4979811;28;20033;-87
2021/12/20 11:57:04;;;;;;;4.78;2.80;;;;;;;;;;4979477;28;20033;-87
2021/12/20 11:59:49;;;;;;;12.10;5.45;;;;;;;;;;4962925;28;20018;-87
2021/12/20 12:02:19;;;;;;;8.32;5.03;;;;;;;;;;4980080;28;20034;-86
2021/12/20 12:04:54;;;;;;;10.35;5.80;;;;;;;;;;4962791;28;20022;-85
2021/12/20 12:07:24;;;;;;;8.68;3.58;;;;;;;;;;4979746;28;20030;-87
2021/12/20 12:10:16;;;;;;;6.38;2.70;;;;;;;;;;4979731;28;20038;-86
2021/12/20 12:12:45;;;;;;;4.53;1.90;;;;;;;;;;4975511;28;20034;-86
2021/12/20 12:15:12;;;;;;;3.72;2.13;;;;;;;;;;4978802;28;20127;-87
2021/12/20 12:17:55;;;;;;;4.20;2.40;;;;;;;;;;4979594;28;20054;-87
2021/12/20 12:20:40;;;;;;;4.45;1.52;;;;;;;;;;4979774;28;20094;-87
2021/12/20 12:23:13;;;;;;;3.17;1.70;;;;;;;;;;4979474;28;20035;-87
2021/12/20 12:25:59;;;;;;;4.57;1.60;;;;;;;;;;4979603;28;20022;-87
2021/12/20 12:28:26;;;;;;;7.38;2.65;;;;;;;;;;4979399;28;20396;-87
2021/12/20 12:30:56;;;;;;;7.22;3.00;;;;;;;;;;4979251;28;20164;-86
2021/12/20 12:33:24;;;;;;;7.15;3.05;;;;;;;;;;4961804;28;20039;-85
2021/12/20 12:35:51;;;;;;;7.60;3.58;;;;;;;;;;4979529;28;20341;-85
2021/12/20 12:38:17;;;;;;;6.07;2.40;;;;;;;;;;4979195;28;20346;-85
2021/12/20 12:40:46;;;;;;;8.35;3.47;;;;;;;;;;4953191;29;20101;-85
2021/12/20 12:43:14;;;;;;;7.43;2.67;;;;;;;;;;4965529;28;20131;-87
2021/12/20 12:46:11;;;;;;;5.93;2.65;;;;;;;;;;4955818;29;20054;-90
2021/12/20 12:48:47;;;;;;;2.17;1.38;;;;;;;;;;4876897;29;20045;-92
2021/12/20 12:51:19;;;;;;;2.72;1.40;;;;;;;;;;4882204;29;20430;-92
2021/12/20 12:53:46;;;;;;;3.55;1.65;;;;;;;;;;4882289;29;20120;-92
2021/12/20 12:56:24;;;;;;;5.20;2.00;;;;;;;;;;4882272;29;20044;-92
2021/12/20 12:59:09;;;;;;;3.83;1.85;;;;;;;;;;4882416;29;20041;-91
2021/12/20 13:01:36;;;;;;;4.85;1.60;;;;;;;;;;4882232;29;20033;-92
2021/12/20 13:04:02;;;;;;;7.50;5.25;;;;;;;;;;4866872;29;20164;-90
2021/12/20 13:06:28;;;;;;;6.25;3.40;;;;;;;;;;4866814;29;20045;-91
2021/12/20 13:08:55;;;;;;;14.38;9.23;;;;;;;;;;4882500;29;20029;-90
2021/12/20 13:11:22;;;;;;;21.85;8.43;;;;;;;;;;4866624;29;20043;-90
2021/12/20 13:13:54;;;;;;;35.72;12.30;;;;;;;;;;4866835;29;20388;-91
2021/12/20 13:16:26;;;;;;;12.70;4.85;;;;;;;;;;4881353;29;20480;-90
2021/12/20 13:18:53;;;;;;;35.20;14.98;;;;;;;;;;4866977;29;20045;-91
2021/12/20 13:21:35;;;;;;;18.52;7.30;;;;;;;;;;4879200;29;20029;-92
2021/12/20 13:24:02;;;;;;;23.55;10.50;;;;;;;;;;4866669;29;20056;-90
2021/12/20 13:26:31;;;;;;;110.95;47.85;;;;;;;;;;4962902;28;20027;-90
2021/12/20 13:29:00;;;;;;;24.63;12.43;;;;;;;;;;4953671;28;20328;-91
2021/12/20 13:31:26;;;;;;;15.57;7.63;;;;;;;;;;4971917;28;20118;-90
2021/12/20 13:33:58;;;;;;;31.65;13.30;;;;;;;;;;4972699;28;20027;-90
2021/12/20 13:36:26;;;;;;;59.55;19.05;;;;;;;;;;4966046;29;20102;-91
2021/12/20 13:38:54;;;;;;;61.78;20.25;;;;;;;;;;4963456;28;20038;-90
2021/12/20 13:41:20;;;;;;;36.13;12.77;;;;;;;;;;4968057;28;20055;-91
2021/12/20 13:43:48;;;;;;;27.52;11.23;;;;;;;;;;4985344;28;20034;-91
2021/12/20 13:46:17;;;;;;;10.57;5.78;;;;;;;;;;4975637;28;20070;-91
2021/12/20 13:48:56;;;;;;;10.63;4.57;;;;;;;;;;4975066;28;20031;-91
2021/12/20 13:51:23;;;;;;;6.55;3.35;;;;;;;;;;4966137;28;20063;-91
2021/12/20 13:53:50;;;;;;;6.15;2.55;;;;;;;;;;4948750;29;20027;-90
2021/12/20 13:59:24;;;;;;;6.82;2.70;;;;;;;;;;4976731;28;20073;-92
2021/12/20 14:01:50;;;;;;;4.95;2.10;;;;;;;;;;4959032;28;20039;-91
2021/12/20 14:04:45;;;;;;;7.22;3.28;;;;;;;;;;4965694;29;20151;-90
2021/12/20 14:07:32;;;;;;;5.95;2.58;;;;;;;;;;4906693;29;20047;-91
2021/12/20 14:10:18;;;;;;;4.22;1.63;;;;;;;;;;4906720;29;20040;-91
2021/12/20 14:15:49;;;;;;;5.88;1.73;;;;;;;;;;4893155;29;20047;-91
2021/12/20 14:18:25;;;;;;;6.28;2.65;;;;;;;;;;4887886;29;20062;-91
2021/12/20 14:20:52;;;;;;;5.40;2.55;;;;;;;;;;4888083;29;20033;-91
2021/12/20 14:23:24;;;;;;;8.18;3.42;;;;;;;;;;4888028;29;20044;-91
2021/12/20 14:25:51;;;;;;;11.20;4.23;;;;;;;;;;4887541;29;20179;-91
2021/12/20 14:28:25;;;;;;;17.75;7.13;;;;;;;;;;4889693;29;20033;-91
2021/12/20 14:30:50;;;;;;;12.30;4.70;;;;;;;;;;4906299;29;20040;-90
2021/12/20 14:33:27;;;;;;;9.18;4.07;;;;;;;;;;4890622;29;20076;-90
2021/12/20 14:35:54;;;;;;;8.85;3.40;;;;;;;;;;4890685;29;20051;-89
2021/12/20 14:38:31;;;;;;;4.93;2.30;;;;;;;;;;4901116;29;20474;-90
2021/12/20 14:40:58;;;;;;;5.82;3.15;;;;;;;;;;4889200;29;20028;-90
2021/12/20 14:43:29;;;;;;;6.65;3.00;;;;;;;;;;4929428;29;20068;-91
2021/12/20 14:46:11;;;;;;;11.55;4.00;;;;;;;;;;4962191;29;20151;-90
2021/12/20 14:48:42;;;;;;;15.48;6.43;;;;;;;;;;4962090;29;20333;-90
2021/12/20 14:51:34;;;;;;;75.47;29.52;;;;;;;;;;4961866;29;20035;-90
2021/12/20 14:54:12;;;;;;;24.83;9.95;;;;;;;;;;4957768;29;20476;-90
2021/12/20 14:56:39;;;;;;;28.30;10.70;;;;;;;;;;4961949;29;20031;-91
2021/12/20 14:59:06;;;;;;;32.55;15.20;;;;;;;;;;4961815;29;20042;-90
2021/12/20 15:01:32;;;;;;;10.00;5.65;;;;;;;;;;4961486;29;20030;-90
2021/12/20 15:03:59;;;;;;;7.72;3.70;;;;;;;;;;4961838;29;20027;-90
2021/12/20 15:06:25;;;;;;;141.82;53.92;;;;;;;;;;4962023;29;20031;-91
2021/12/20 15:08:51;;;;;;;12.98;7.15;;;;;;;;;;4961891;29;20042;-92
2021/12/20 15:11:17;;;;;;;17.83;8.88;;;;;;;;;;4961580;29;20041;-90
2021/12/20 15:13:43;;;;;;;10.48;5.68;;;;;;;;;;4944533;29;20027;-89
2021/12/20 15:16:09;;;;;;;47.30;21.80;;;;;;;;;;4961596;29;20023;-90
2021/12/20 15:18:37;;;;;;;9.98;5.93;;;;;;;;;;4944162;29;20032;-90
2021/12/20 15:21:03;;;;;;;23.77;11.35;;;;;;;;;;4961741;29;20102;-90
2021/12/20 15:23:29;;;;;;;16.33;10.27;;;;;;;;;;4961349;29;20032;-89
2021/12/20 15:25:55;;;;;;;17.85;10.38;;;;;;;;;;4961430;29;20058;-90
2021/12/20 15:28:21;;;;;;;24.08;10.75;;;;;;;;;;4961435;29;20031;-89
2021/12/20 15:30:47;;;;;;;24.90;11.18;;;;;;;;;;4961149;29;20085;-89
2021/12/20 15:33:13;;;;;;;60.25;21.70;;;;;;;;;;4961053;29;20027;-90